Time,TemperatureF,DewpointF,PressureIn,WindDirection,WindDirectionDegrees,WindSpeedMPH,WindSpeedGustMPH,Humidity,HourlyPrecipIn,Conditions,Clouds,dailyrainin,SoftwareType,DateUTC
2013-05-13 00:07:00,42.9,39.0,30.18,NNW,336,0.0,0.0,86,0.00,,,0.00,weatherlink.com 1.10,2013-05-13 05:07:00,
2013-05-13 00:22:00,42.2,39.0,30.18,NNW,336,0.0,0.0,87,0.00,,,0.00,weatherlink.com 1.10,2013-05-13 05:22:00,
2013-05-13 00:37:00,41.8,39.0,30.18,NNW,336,0.0,0.0,89,0.00,,,0.00,weatherlink.com 1.10,2013-05-13 05:37:00,
2013-05-13 00:52:00,41.9,39.0,30.18,NNW,336,0.0,0.0,90,0.00,,,0.00,weatherlink.com 1.10,2013-05-13 05:52:00,
2013-05-13 01:07:00,41.8,39.0,30.18,NNW,336,0.0,0.0,91,0.00,,,0.00,weatherlink.com 1.10,2013-05-13 06:07:00,
2013-05-13 01:22:00,41.4,39.0,30.18,NNW,336,0.0,0.0,91,0.00,,,0.00,weatherlink.com 1.10,2013-05-13 06:22:00,
2013-05-13 01:37:00,41.1,39.0,30.18,NNW,336,0.0,0.0,91,0.00,,,0.00,weatherlink.com 1.10,2013-05-13 06:37:00,
2013-05-13 01:53:00,40.7,39.0,30.17,NNW,336,0.0,0.0,92,0.00,,,0.00,weatherlink.com 1.10,2013-05-13 06:53:00,
2013-05-13 02:08:00,40.5,38.0,30.17,NNW,336,1.0,4.0,92,0.00,,,0.00,weatherlink.com 1.10,2013-05-13 07:08:00,
2013-05-13 02:23:00,40.4,39.0,30.18,NNW,336,0.0,0.0,93,0.00,,,0.00,weatherlink.com 1.10,2013-05-13 07:23:00,
2013-05-13 02:38:00,40.2,38.0,30.18,NNW,336,0.0,0.0,93,0.00,,,0.00,weatherlink.com 1.10,2013-05-13 07:38:00,
2013-05-13 02:53:00,40.1,38.0,30.18,NNW,336,0.0,0.0,93,0.00,,,0.00,weatherlink.com 1.10,2013-05-13 07:53:00,
2013-05-13 03:08:00,39.8,38.0,30.18,NNW,336,0.0,0.0,93,0.00,,,0.00,weatherlink.com 1.10,2013-05-13 08:08:00,
2013-05-13 03:23:00,39.8,38.0,30.18,NNW,336,0.0,0.0,94,0.00,,,0.00,weatherlink.com 1.10,2013-05-13 08:23:00,
2013-05-13 03:38:00,39.7,38.0,30.18,NNW,336,0.0,0.0,94,0.00,,,0.00,weatherlink.com 1.10,2013-05-13 08:38:00,
2013-05-13 03:53:00,39.5,38.0,30.18,NNW,336,0.0,0.0,94,0.00,,,0.00,weatherlink.com 1.10,2013-05-13 08:53:00,
2013-05-13 04:08:00,39.2,38.0,30.19,NNW,336,0.0,0.0,94,0.00,,,0.00,weatherlink.com 1.10,2013-05-13 09:08:00,
2013-05-13 04:23:00,39.1,38.0,30.19,NNW,336,0.0,0.0,94,0.00,,,0.00,weatherlink.com 1.10,2013-05-13 09:23:00,
2013-05-13 04:38:00,38.9,37.0,30.19,NNW,336,0.0,0.0,94,0.00,,,0.00,weatherlink.com 1.10,2013-05-13 09:38:00,
2013-05-13 04:53:00,39.0,38.0,30.19,NNW,336,0.0,0.0,95,0.00,,,0.00,weatherlink.com 1.10,2013-05-13 09:53:00,
2013-05-13 05:08:00,39.0,38.0,30.18,NNW,336,0.0,0.0,95,0.00,,,0.00,weatherlink.com 1.10,2013-05-13 10:08:00,
2013-05-13 05:23:00,38.9,38.0,30.19,NNW,336,0.0,0.0,95,0.00,,,0.00,weatherlink.com 1.10,2013-05-13 10:23:00,
2013-05-13 05:38:00,38.8,37.0,30.19,NNW,336,0.0,0.0,94,0.00,,,0.00,weatherlink.com 1.10,2013-05-13 10:38:00,
2013-05-13 05:53:00,38.6,37.0,30.19,NNW,336,0.0,0.0,94,0.00,,,0.00,weatherlink.com 1.10,2013-05-13 10:53:00,
2013-05-13 06:08:00,38.7,37.0,30.20,NNW,336,0.0,1.0,95,0.00,,,0.00,weatherlink.com 1.10,2013-05-13 11:08:00,
2013-05-13 06:23:00,38.7,37.0,30.20,NNW,336,0.0,0.0,95,0.00,,,0.00,weatherlink.com 1.10,2013-05-13 11:23:00,
2013-05-13 06:38:00,39.3,38.0,30.21,NNW,336,0.0,0.0,95,0.00,,,0.00,weatherlink.com 1.10,2013-05-13 11:38:00,
2013-05-13 06:53:00,39.8,39.0,30.21,NNW,336,0.0,0.0,95,0.00,,,0.00,weatherlink.com 1.10,2013-05-13 11:53:00,
2013-05-13 07:08:00,41.6,41.0,30.22,NNW,336,0.0,1.0,96,0.00,,,0.00,weatherlink.com 1.10,2013-05-13 12:08:00,
2013-05-13 07:23:00,43.6,43.0,30.22,NNW,336,0.0,2.0,96,0.00,,,0.00,weatherlink.com 1.10,2013-05-13 12:23:00,
2013-05-13 07:38:00,45.6,44.0,30.22,NNW,336,0.0,1.0,92,0.00,,,0.00,weatherlink.com 1.10,2013-05-13 12:38:00,
2013-05-13 07:53:00,49.4,44.0,30.23,NNW,336,0.0,1.0,82,0.00,,,0.00,weatherlink.com 1.10,2013-05-13 12:53:00,
2013-05-13 08:08:00,53.0,42.0,30.23,NNW,336,1.0,4.0,67,0.00,,,0.00,weatherlink.com 1.10,2013-05-13 13:08:00,
2013-05-13 08:23:00,54.8,41.0,30.24,NNW,336,2.0,5.0,61,0.00,,,0.00,weatherlink.com 1.10,2013-05-13 13:23:00,
2013-05-13 08:38:00,56.2,41.0,30.24,West,259,2.0,6.0,58,0.00,,,0.00,weatherlink.com 1.10,2013-05-13 13:38:00,
2013-05-13 08:53:00,57.3,40.0,30.24,NW,325,2.0,5.0,53,0.00,,,0.00,weatherlink.com 1.10,2013-05-13 13:53:00,
2013-05-13 09:08:00,58.2,39.0,30.25,WNW,286,1.0,6.0,50,0.00,,,0.00,weatherlink.com 1.10,2013-05-13 14:08:00,
2013-05-13 09:24:00,59.6,37.0,30.25,NW,312,2.0,7.0,44,0.00,,,0.00,weatherlink.com 1.10,2013-05-13 14:24:00,
2013-05-13 09:39:00,60.4,38.0,30.24,NW,315,6.0,7.0,44,0.00,,,0.00,weatherlink.com 1.10,2013-05-13 14:39:00,
2013-05-13 09:54:00,61.3,38.0,30.24,WSW,252,1.0,8.0,42,0.00,,,0.00,weatherlink.com 1.10,2013-05-13 14:54:00,
2013-05-13 10:09:00,62.0,36.0,30.24,NW,313,2.0,7.0,38,0.00,,,0.00,weatherlink.com 1.10,2013-05-13 15:09:00,
2013-05-13 10:24:00,62.7,36.0,30.24,WNW,296,1.0,8.0,37,0.00,,,0.00,weatherlink.com 1.10,2013-05-13 15:24:00,
2013-05-13 10:39:00,63.4,39.0,30.25,NNW,339,1.0,5.0,40,0.00,,,0.00,weatherlink.com 1.10,2013-05-13 15:39:00,
2013-05-13 10:54:00,63.7,35.0,30.24,South,189,3.0,10.0,34,0.00,,,0.00,weatherlink.com 1.10,2013-05-13 15:54:00,
2013-05-13 11:09:00,64.5,35.0,30.25,North,355,6.0,12.0,33,0.00,,,0.00,weatherlink.com 1.10,2013-05-13 16:09:00,
2013-05-13 11:24:00,64.6,34.0,30.25,NW,322,1.0,6.0,32,0.00,,,0.00,weatherlink.com 1.10,2013-05-13 16:24:00,
2013-05-13 11:39:00,65.4,38.0,30.25,NW,321,3.0,6.0,36,0.00,,,0.00,weatherlink.com 1.10,2013-05-13 16:39:00,
2013-05-13 11:54:00,65.0,36.0,30.24,NNW,348,5.0,5.0,34,0.00,,,0.00,weatherlink.com 1.10,2013-05-13 16:54:00,
2013-05-13 12:09:00,65.2,36.0,30.24,NNW,329,4.0,9.0,34,0.00,,,0.00,weatherlink.com 1.10,2013-05-13 17:09:00,
2013-05-13 12:24:00,66.2,38.0,30.23,SE,144,5.0,5.0,36,0.00,,,0.00,weatherlink.com 1.10,2013-05-13 17:24:00,
2013-05-13 12:39:00,66.6,33.0,30.22,WSW,242,2.0,10.0,29,0.00,,,0.00,weatherlink.com 1.10,2013-05-13 17:39:00,
2013-05-13 12:54:00,66.3,34.0,30.22,SE,128,0.0,9.0,30,0.00,,,0.00,weatherlink.com 1.10,2013-05-13 17:54:00,
2013-05-13 13:09:00,66.8,36.0,30.21,SW,221,1.0,7.0,32,0.00,,,0.00,weatherlink.com 1.10,2013-05-13 18:09:00,
2013-05-13 13:39:00,67.7,36.0,30.20,SW,222,2.0,3.0,31,0.00,,,0.00,weatherlink.com 1.10,2013-05-13 18:39:00,
2013-05-13 13:54:00,68.3,41.0,30.20,West,276,1.0,5.0,37,0.00,,,0.00,weatherlink.com 1.10,2013-05-13 18:54:00,
2013-05-13 14:09:00,68.8,38.0,30.19,West,277,2.0,8.0,32,0.00,,,0.00,weatherlink.com 1.10,2013-05-13 19:09:00,
2013-05-13 14:24:00,68.5,37.0,30.19,West,281,6.0,8.0,32,0.00,,,0.00,weatherlink.com 1.10,2013-05-13 19:24:00,
2013-05-13 14:39:00,69.3,37.0,30.18,South,191,3.0,8.0,31,0.00,,,0.00,weatherlink.com 1.10,2013-05-13 19:39:00,
2013-05-13 14:54:00,69.6,39.0,30.17,North,5,4.0,10.0,33,0.00,,,0.00,weatherlink.com 1.10,2013-05-13 19:54:00,
2013-05-13 15:09:00,69.6,38.0,30.16,NW,308,3.0,10.0,31,0.00,,,0.00,weatherlink.com 1.10,2013-05-13 20:09:00,
2013-05-13 15:24:00,69.7,37.0,30.16,SW,218,1.0,7.0,30,0.00,,,0.00,weatherlink.com 1.10,2013-05-13 20:24:00,
2013-05-13 15:39:00,70.4,38.0,30.15,SW,215,2.0,12.0,31,0.00,,,0.00,weatherlink.com 1.10,2013-05-13 20:39:00,
2013-05-13 15:54:00,70.6,39.0,30.15,NW,309,2.0,6.0,32,0.00,,,0.00,weatherlink.com 1.10,2013-05-13 20:54:00,
2013-05-13 16:09:00,70.8,39.0,30.14,WNW,290,6.0,10.0,31,0.00,,,0.00,weatherlink.com 1.10,2013-05-13 21:09:00,
2013-05-13 16:24:00,70.8,39.0,30.14,SE,142,3.0,5.0,31,0.00,,,0.00,weatherlink.com 1.10,2013-05-13 21:24:00,
2013-05-13 16:39:00,71.2,38.0,30.13,SSE,155,3.0,8.0,30,0.00,,,0.00,weatherlink.com 1.10,2013-05-13 21:39:00,
2013-05-13 16:54:00,70.6,38.0,30.13,SSW,194,0.0,6.0,31,0.00,,,0.00,weatherlink.com 1.10,2013-05-13 21:54:00,
2013-05-13 17:09:00,71.0,38.0,30.13,South,172,5.0,7.0,30,0.00,,,0.00,weatherlink.com 1.10,2013-05-13 22:09:00,
2013-05-13 17:24:00,71.0,38.0,30.12,South,175,4.0,8.0,30,0.00,,,0.00,weatherlink.com 1.10,2013-05-13 22:24:00,
2013-05-13 17:39:00,71.2,39.0,30.12,SSW,203,3.0,4.0,31,0.00,,,0.00,weatherlink.com 1.10,2013-05-13 22:39:00,
2013-05-13 17:54:00,70.4,38.0,30.12,SE,136,1.0,8.0,31,0.00,,,0.00,weatherlink.com 1.10,2013-05-13 22:54:00,
2013-05-13 18:09:00,70.2,38.0,30.11,South,188,0.0,6.0,31,0.00,,,0.00,weatherlink.com 1.10,2013-05-13 23:09:00,
2013-05-13 18:25:00,70.8,39.0,30.11,South,188,1.0,5.0,31,0.00,,,0.00,weatherlink.com 1.10,2013-05-13 23:25:00,
2013-05-13 18:40:00,70.8,39.0,30.11,South,188,0.0,5.0,32,0.00,,,0.00,weatherlink.com 1.10,2013-05-13 23:40:00,
2013-05-13 18:55:00,70.0,40.0,30.11,South,188,2.0,4.0,34,0.00,,,0.00,weatherlink.com 1.10,2013-05-13 23:55:00,
2013-05-13 19:10:00,69.1,42.0,30.10,South,188,3.0,4.0,37,0.00,,,0.00,weatherlink.com 1.10,2013-05-14 00:10:00,
2013-05-13 19:25:00,67.6,42.0,30.10,South,188,0.0,3.0,40,0.00,,,0.00,weatherlink.com 1.10,2013-05-14 00:25:00,
2013-05-13 19:40:00,66.9,43.0,30.10,South,188,0.0,1.0,42,0.00,,,0.00,weatherlink.com 1.10,2013-05-14 00:40:00,
2013-05-13 19:55:00,65.0,46.0,30.11,South,188,0.0,0.0,51,0.00,,,0.00,weatherlink.com 1.10,2013-05-14 00:55:00,
2013-05-13 20:10:00,63.2,47.0,30.11,South,188,0.0,0.0,55,0.00,,,0.00,weatherlink.com 1.10,2013-05-14 01:10:00,
2013-05-13 20:25:00,61.7,47.0,30.11,South,188,0.0,0.0,58,0.00,,,0.00,weatherlink.com 1.10,2013-05-14 01:25:00,
2013-05-13 20:40:00,59.9,47.0,30.11,South,188,1.0,1.0,62,0.00,,,0.00,weatherlink.com 1.10,2013-05-14 01:40:00,
2013-05-13 20:55:00,58.7,47.0,30.11,South,188,0.0,1.0,66,0.00,,,0.00,weatherlink.com 1.10,2013-05-14 01:55:00,
2013-05-13 21:10:00,57.5,49.0,30.11,South,188,0.0,1.0,73,0.00,,,0.00,weatherlink.com 1.10,2013-05-14 02:10:00,
2013-05-13 21:25:00,56.2,49.0,30.11,South,188,0.0,1.0,77,0.00,,,0.00,weatherlink.com 1.10,2013-05-14 02:25:00,
2013-05-13 21:40:00,56.5,48.0,30.11,South,188,1.0,2.0,72,0.00,,,0.00,weatherlink.com 1.10,2013-05-14 02:40:00,
2013-05-13 21:55:00,56.9,47.0,30.11,South,188,2.0,3.0,70,0.00,,,0.00,weatherlink.com 1.10,2013-05-14 02:55:00,
2013-05-13 22:10:00,57.3,48.0,30.11,South,188,1.0,2.0,71,0.00,,,0.00,weatherlink.com 1.10,2013-05-14 03:10:00,
2013-05-13 22:25:00,56.5,47.0,30.10,South,188,2.0,3.0,71,0.00,,,0.00,weatherlink.com 1.10,2013-05-14 03:25:00,
2013-05-13 22:40:00,57.1,47.0,30.11,South,188,3.0,5.0,68,0.00,,,0.00,weatherlink.com 1.10,2013-05-14 03:40:00,
2013-05-13 22:55:00,57.3,47.0,30.10,South,188,2.0,4.0,68,0.00,,,0.00,weatherlink.com 1.10,2013-05-14 03:55:00,
2013-05-13 23:10:00,57.6,46.0,30.09,South,188,2.0,4.0,66,0.00,,,0.00,weatherlink.com 1.10,2013-05-14 04:10:00,
2013-05-13 23:25:00,57.7,46.0,30.09,South,188,2.0,3.0,65,0.00,,,0.00,weatherlink.com 1.10,2013-05-14 04:25:00,
2013-05-13 23:40:00,57.1,47.0,30.09,South,188,3.0,3.0,68,0.00,,,0.00,weatherlink.com 1.10,2013-05-14 04:40:00,
2013-05-13 23:55:00,57.3,46.0,30.09,South,188,0.0,3.0,65,0.00,,,0.00,weatherlink.com 1.10,2013-05-14 04:55:00,